createdAt,value
2022-12-15T00:00:04.243Z,-7.30
2022-12-15T00:02:26.230Z,-7.20
2022-12-15T00:04:46.762Z,-7.20
2022-12-15T00:07:07.304Z,-7.10
2022-12-15T00:09:30.981Z,-7.10
2022-12-15T00:11:51.371Z,-7.00
2022-12-15T00:14:11.714Z,-6.90
2022-12-15T00:16:32.043Z,-6.90
2022-12-15T00:18:53.601Z,-6.80
2022-12-15T00:21:15.842Z,-6.80
2022-12-15T00:23:35.979Z,-6.70
2022-12-15T00:25:56.020Z,-6.70
2022-12-15T00:28:16.572Z,-6.60
2022-12-15T00:30:36.820Z,-6.60
2022-12-15T00:32:57.154Z,-6.50
2022-12-15T00:35:18.959Z,-6.50
2022-12-15T00:37:38.834Z,-6.40
2022-12-15T00:39:41.570Z,-6.40
2022-12-15T00:41:44.483Z,-6.40
2022-12-15T00:43:47.764Z,-6.40
2022-12-15T00:46:08.183Z,-6.30
2022-12-15T00:48:10.979Z,-6.30
2022-12-15T00:50:32.778Z,-6.20
2022-12-15T00:52:53.552Z,-6.20
2022-12-15T00:55:14.249Z,-6.20
2022-12-15T00:57:34.442Z,-6.10
2022-12-15T00:59:55.059Z,-6.10
2022-12-15T01:02:15.816Z,-6.10
2022-12-15T01:04:36.268Z,-6.00
2022-12-15T01:06:58.238Z,-6.00
2022-12-15T01:09:18.787Z,-6.00
2022-12-15T01:11:39.206Z,-5.90
2022-12-15T01:13:59.896Z,-5.90
2022-12-15T01:16:20.385Z,-5.90
2022-12-15T01:18:40.886Z,-5.80
2022-12-15T01:20:43.888Z,-5.80
2022-12-15T01:22:49.413Z,-5.80
2022-12-15T01:24:52.306Z,-5.80
2022-12-15T01:26:55.007Z,-5.70
2022-12-15T01:28:57.662Z,-5.70
2022-12-15T01:31:00.507Z,-5.70
2022-12-15T01:33:03.243Z,-5.60
2022-12-15T01:35:06.981Z,-5.60
2022-12-15T01:37:09.725Z,-5.60
2022-12-15T01:39:13.949Z,-5.50
2022-12-15T01:41:15.851Z,-5.50
2022-12-15T01:43:20.623Z,-5.50
2022-12-15T01:45:47.839Z,-5.50
2022-12-15T01:47:50.794Z,-5.40
2022-12-15T01:49:55.092Z,-5.40
2022-12-15T01:52:01.727Z,-5.40
2022-12-15T01:54:07.803Z,-5.30
2022-12-15T01:56:12.775Z,-5.30
2022-12-15T01:58:18.088Z,-5.30
2022-12-15T02:00:21.142Z,-5.30
2022-12-15T02:02:27.800Z,-5.30
2022-12-15T02:04:32.234Z,-5.30
2022-12-15T02:06:35.875Z,-5.30
2022-12-15T02:08:38.954Z,-5.30
2022-12-15T02:10:54.882Z,-5.20
2022-12-15T02:13:06.175Z,-5.20
2022-12-15T02:15:18.719Z,-5.20
2022-12-15T02:17:30.110Z,-5.20
2022-12-15T02:19:57.135Z,-5.20
2022-12-15T02:22:14.985Z,-5.10
2022-12-15T02:24:54.646Z,-5.10
2022-12-15T02:27:16.777Z,-5.10
2022-12-15T02:29:37.054Z,-5.10
2022-12-15T02:31:50.770Z,-5.10
2022-12-15T02:33:58.921Z,-5.00
2022-12-15T02:36:07.987Z,-5.00
2022-12-15T02:38:11.011Z,-5.00
2022-12-15T02:40:13.813Z,-5.00
2022-12-15T02:42:16.495Z,-4.90
2022-12-15T02:44:23.242Z,-4.90
2022-12-15T02:46:32.533Z,-4.90
2022-12-15T02:48:49.703Z,-4.90
2022-12-15T02:51:06.452Z,-4.80
2022-12-15T02:53:21.259Z,-4.80
2022-12-15T02:55:33.087Z,-4.80
2022-12-15T02:57:44.918Z,-4.80
2022-12-15T02:59:55.448Z,-4.80
2022-12-15T03:02:01.874Z,-4.80
2022-12-15T03:04:08.657Z,-4.80
2022-12-15T03:06:11.610Z,-4.80
2022-12-15T03:08:14.563Z,-4.80
2022-12-15T03:10:17.949Z,-4.80
2022-12-15T03:12:20.629Z,-4.80
2022-12-15T03:14:25.349Z,-4.70
2022-12-15T03:16:28.633Z,-4.70
2022-12-15T03:18:31.432Z,-4.70
2022-12-15T03:20:35.529Z,-4.70
2022-12-15T03:22:39.109Z,-4.70
2022-12-15T03:24:41.802Z,-4.70
2022-12-15T03:26:48.455Z,-4.70
2022-12-15T03:28:51.257Z,-4.70
2022-12-15T03:30:54.158Z,-4.70
2022-12-15T03:32:56.838Z,-4.70
2022-12-15T03:35:00.970Z,-4.70
2022-12-15T03:37:04.984Z,-4.70
2022-12-15T03:39:08.070Z,-4.70
2022-12-15T03:41:10.831Z,-4.70
2022-12-15T03:43:13.701Z,-4.70
2022-12-15T03:45:17.955Z,-4.60
2022-12-15T03:47:20.647Z,-4.60
2022-12-15T03:49:23.695Z,-4.60
2022-12-15T03:51:26.822Z,-4.60
2022-12-15T03:53:31.378Z,-4.60
2022-12-15T03:55:35.053Z,-4.60
2022-12-15T03:57:37.996Z,-4.50
2022-12-15T03:59:40.714Z,-4.50
2022-12-15T04:01:48.257Z,-4.50
2022-12-15T04:03:54.313Z,-4.50
2022-12-15T04:06:01.585Z,-4.50
2022-12-15T04:08:05.478Z,-4.50
2022-12-15T04:10:10.439Z,-4.50
2022-12-15T04:12:13.315Z,-4.50
2022-12-15T04:14:15.988Z,-4.50
2022-12-15T04:16:20.278Z,-4.50
2022-12-15T04:18:23.729Z,-4.50
2022-12-15T04:20:25.560Z,-4.50
2022-12-15T04:22:28.301Z,-4.40
2022-12-15T04:24:48.491Z,-4.40
2022-12-15T04:27:10.145Z,-4.40
2022-12-15T04:29:30.756Z,-4.40
2022-12-15T04:31:52.629Z,-4.40
2022-12-15T04:34:16.158Z,-4.40
2022-12-15T04:36:37.066Z,-4.40
2022-12-15T04:38:57.459Z,-4.40
2022-12-15T04:41:18.527Z,-4.30
2022-12-15T04:43:40.437Z,-4.40
2022-12-15T04:46:00.932Z,-4.30
2022-12-15T04:48:22.586Z,-4.30
2022-12-15T04:50:43.119Z,-4.30
2022-12-15T04:53:03.448Z,-4.20
2022-12-15T04:55:24.817Z,-4.20
2022-12-15T04:57:45.306Z,-4.20
2022-12-15T05:00:07.060Z,-4.20
2022-12-15T05:02:27.760Z,-4.20
2022-12-15T05:04:48.652Z,-4.10
2022-12-15T05:07:09.566Z,-4.10
2022-12-15T05:09:32.457Z,-4.10
2022-12-15T05:11:53.080Z,-4.10
2022-12-15T05:14:13.117Z,-4.00
2022-12-15T05:16:34.841Z,-4.00
2022-12-15T05:18:55.296Z,-4.00
2022-12-15T05:21:16.302Z,-4.00
2022-12-15T05:23:36.837Z,-4.00
2022-12-15T05:25:57.450Z,-3.90
2022-12-15T05:28:17.936Z,-3.90
2022-12-15T05:30:38.994Z,-3.90
2022-12-15T05:32:43.208Z,-3.90
2022-12-15T05:34:46.495Z,-3.90
2022-12-15T05:36:49.257Z,-3.90
2022-12-15T05:38:52.924Z,-3.90
2022-12-15T05:40:58.352Z,-3.90
2022-12-15T05:43:01.652Z,-3.90
2022-12-15T05:45:05.078Z,-3.90
2022-12-15T05:47:08.126Z,-3.90
2022-12-15T05:49:15.864Z,-3.90
2022-12-15T05:51:18.715Z,-3.90
2022-12-15T05:53:21.435Z,-3.90
2022-12-15T05:55:24.099Z,-3.90
2022-12-15T05:57:26.928Z,-3.90
2022-12-15T05:59:29.730Z,-3.90
2022-12-15T06:01:32.969Z,-3.90
2022-12-15T06:03:36.078Z,-3.90
2022-12-15T06:05:40.690Z,-3.90
2022-12-15T06:07:43.363Z,-3.80
2022-12-15T06:09:46.833Z,-3.80
2022-12-15T06:11:49.573Z,-3.80
2022-12-15T06:13:52.469Z,-3.90
2022-12-15T06:15:57.491Z,-3.80
2022-12-15T06:18:00.231Z,-3.80
2022-12-15T06:20:03.985Z,-3.90
2022-12-15T06:22:08.065Z,-3.90
2022-12-15T06:24:11.618Z,-3.90
2022-12-15T06:26:16.398Z,-3.90
2022-12-15T06:28:23.859Z,-3.90
2022-12-15T06:30:26.589Z,-3.90
2022-12-15T06:32:29.272Z,-3.90
2022-12-15T06:34:32.194Z,-3.90
2022-12-15T06:36:35.584Z,-3.90
2022-12-15T06:38:42.015Z,-3.90
2022-12-15T06:40:44.809Z,-3.90
2022-12-15T06:42:47.644Z,-3.90
2022-12-15T06:44:50.296Z,-3.90
2022-12-15T06:46:53.304Z,-3.90
2022-12-15T06:48:56.541Z,-3.90
2022-12-15T06:51:03.548Z,-3.90
2022-12-15T06:53:06.232Z,-3.90
2022-12-15T06:55:10.691Z,-3.90
2022-12-15T06:57:13.358Z,-3.90
2022-12-15T06:59:16.051Z,-3.90
2022-12-15T07:01:20.025Z,-3.90
2022-12-15T07:03:23.602Z,-3.90
2022-12-15T07:05:27.338Z,-3.90
2022-12-15T07:07:30.021Z,-3.90
2022-12-15T07:09:32.722Z,-3.90
2022-12-15T07:11:37.155Z,-3.90
2022-12-15T07:13:40.641Z,-3.90
2022-12-15T07:15:44.401Z,-3.90
2022-12-15T07:17:47.098Z,-3.90
2022-12-15T07:19:49.899Z,-3.90
2022-12-15T07:21:53.121Z,-3.80
2022-12-15T07:23:57.260Z,-3.80
2022-12-15T07:26:09.634Z,-3.80
2022-12-15T07:28:15.483Z,-3.80
2022-12-15T07:30:18.927Z,-3.80
2022-12-15T07:32:22.182Z,-3.80
2022-12-15T07:34:25.021Z,-3.80
2022-12-15T07:36:28.547Z,-3.80
2022-12-15T07:38:31.630Z,-3.80
2022-12-15T07:40:34.471Z,-3.80
2022-12-15T07:42:37.639Z,-3.80
2022-12-15T07:44:41.719Z,-3.80
2022-12-15T07:46:46.946Z,-3.80
2022-12-15T07:48:50.407Z,-3.80
2022-12-15T07:51:02.771Z,-3.80
2022-12-15T07:53:09.414Z,-3.80
2022-12-15T07:55:12.202Z,-3.70
2022-12-15T07:57:16.084Z,-3.70
2022-12-15T07:59:19.498Z,-3.70
2022-12-15T08:01:24.822Z,-3.70
2022-12-15T08:03:28.075Z,-3.70
2022-12-15T08:05:30.915Z,-3.70
2022-12-15T08:07:36.450Z,-3.70
2022-12-15T08:09:39.170Z,-3.70
2022-12-15T08:11:42.967Z,-3.70
2022-12-15T08:14:02.551Z,-3.70
2022-12-15T08:16:05.794Z,-3.70
2022-12-15T08:18:09.982Z,-3.70
2022-12-15T08:20:12.751Z,-3.60
2022-12-15T08:22:16.760Z,-3.60
2022-12-15T08:24:19.598Z,-3.60
2022-12-15T08:26:28.389Z,-3.60
2022-12-15T08:28:33.124Z,-3.50
2022-12-15T08:30:36.601Z,-3.50
2022-12-15T08:32:40.009Z,-3.50
2022-12-15T08:34:44.038Z,-3.50
2022-12-15T08:36:46.743Z,-3.50
2022-12-15T08:38:50.203Z,-3.40
2022-12-15T08:40:53.171Z,-3.40
2022-12-15T08:42:55.979Z,-3.40
2022-12-15T08:44:58.679Z,-3.40
2022-12-15T08:47:01.477Z,-3.40
2022-12-15T08:49:05.203Z,-3.40
2022-12-15T08:51:09.695Z,-3.40
2022-12-15T08:55:35.801Z,-3.40
2022-12-15T08:57:40.525Z,-3.30
2022-12-15T08:59:43.340Z,-3.30
2022-12-15T09:01:46.367Z,-3.30
2022-12-15T09:03:49.681Z,-3.30
2022-12-15T09:05:52.452Z,-3.30
2022-12-15T09:08:04.636Z,-3.30
2022-12-15T09:10:09.543Z,-3.30
2022-12-15T09:12:13.150Z,-3.20
2022-12-15T09:14:15.910Z,-3.20
2022-12-15T09:16:19.514Z,-3.20
2022-12-15T09:18:22.334Z,-3.20
2022-12-15T09:20:25.256Z,-3.20
2022-12-15T09:22:27.979Z,-3.20
2022-12-15T09:24:35.049Z,-3.30
2022-12-15T09:26:37.988Z,-3.30
2022-12-15T09:28:41.470Z,-3.30
2022-12-15T09:30:44.340Z,-3.30
2022-12-15T09:32:47.276Z,-3.30
2022-12-15T09:34:51.811Z,-3.30
2022-12-15T09:36:54.502Z,-3.30
2022-12-15T09:38:57.533Z,-3.40
2022-12-15T09:41:09.462Z,-3.40
2022-12-15T09:43:33.920Z,-3.30
2022-12-15T09:45:43.412Z,-3.30
2022-12-15T09:47:53.661Z,-3.30
2022-12-15T09:49:58.295Z,-3.20
2022-12-15T09:52:10.673Z,-3.20
2022-12-15T09:54:14.090Z,-3.10
2022-12-15T09:56:22.652Z,-3.10
2022-12-15T09:58:40.910Z,-3.10
2022-12-15T10:00:52.651Z,-3.10
2022-12-15T10:03:30.632Z,-3.10
2022-12-15T10:06:07.259Z,-3.00
2022-12-15T10:08:06.565Z,-3.00
2022-12-15T10:10:16.383Z,-2.90
2022-12-15T10:12:26.052Z,-2.80
2022-12-15T10:14:32.309Z,-2.80
2022-12-15T10:16:41.938Z,-2.80
2022-12-15T10:18:59.471Z,-2.80
2022-12-15T10:21:04.877Z,-2.80
2022-12-15T10:23:13.500Z,-2.70
2022-12-15T10:25:25.315Z,-2.60
2022-12-15T10:27:53.664Z,-2.60
2022-12-15T10:30:02.428Z,-2.50
2022-12-15T10:32:10.373Z,-2.50
2022-12-15T10:34:25.059Z,-2.40
2022-12-15T10:36:28.191Z,-2.50
2022-12-15T10:38:37.552Z,-2.50
2022-12-15T10:40:50.372Z,-2.50
2022-12-15T10:42:55.576Z,-2.60
2022-12-15T10:44:59.810Z,-2.70
2022-12-15T10:47:10.656Z,-2.80
2022-12-15T10:49:23.592Z,-2.90
2022-12-15T10:51:30.735Z,-2.90
2022-12-15T10:53:42.370Z,-2.90
2022-12-15T10:55:50.091Z,-2.90
2022-12-15T10:58:02.304Z,-3.00
2022-12-15T11:00:28.591Z,-2.90
2022-12-15T11:02:34.559Z,-2.80
2022-12-15T11:04:37.528Z,-2.80
2022-12-15T11:06:43.170Z,-2.70
2022-12-15T11:08:47.299Z,-2.70
2022-12-15T11:11:09.556Z,-2.70
2022-12-15T11:13:16.358Z,-2.70
2022-12-15T11:15:39.799Z,-2.70
2022-12-15T11:17:43.608Z,-2.70
2022-12-15T11:19:58.265Z,-2.60
2022-12-15T11:22:11.104Z,-2.50
2022-12-15T11:24:17.401Z,-2.40
2022-12-15T11:26:33.278Z,-2.30
2022-12-15T11:28:45.815Z,-2.20
2022-12-15T11:30:59.352Z,-2.20
2022-12-15T11:33:03.229Z,-2.20
2022-12-15T11:35:12.607Z,-2.20
2022-12-15T11:37:36.454Z,-2.10
2022-12-15T11:39:55.963Z,-2.20
2022-12-15T11:42:05.863Z,-2.20
2022-12-15T11:44:23.743Z,-2.20
2022-12-15T11:46:31.720Z,-2.10
2022-12-15T11:48:41.896Z,-2.00
2022-12-15T11:50:54.225Z,-2.00
2022-12-15T11:53:30.373Z,-2.00
2022-12-15T11:55:43.102Z,-2.10
2022-12-15T11:58:02.141Z,-2.20
2022-12-15T12:00:11.430Z,-2.30
2022-12-15T12:02:36.914Z,-2.30
2022-12-15T12:04:48.659Z,-2.30
2022-12-15T12:07:07.119Z,-2.30
2022-12-15T12:09:22.675Z,-2.30
2022-12-15T12:11:29.922Z,-2.30
2022-12-15T12:13:42.125Z,-2.20
2022-12-15T12:15:55.499Z,-2.20
2022-12-15T12:18:04.018Z,-2.20
2022-12-15T12:20:18.097Z,-2.20
2022-12-15T12:22:26.332Z,-2.20
2022-12-15T12:24:34.014Z,-2.20
2022-12-15T12:26:41.916Z,-2.30
2022-12-15T12:28:48.847Z,-2.30
2022-12-15T12:30:59.319Z,-2.30
2022-12-15T12:33:07.410Z,-2.20
2022-12-15T12:35:31.054Z,-2.20
2022-12-15T12:37:40.553Z,-2.20
2022-12-15T12:39:45.379Z,-2.10
2022-12-15T12:41:52.472Z,-2.10
2022-12-15T12:43:58.163Z,-2.10
2022-12-15T12:46:09.859Z,-2.10
2022-12-15T12:48:19.237Z,-2.00
2022-12-15T12:50:24.559Z,-2.00
2022-12-15T12:52:30.826Z,-2.20
2022-12-15T12:54:45.578Z,-2.30
2022-12-15T12:56:50.418Z,-2.30
2022-12-15T12:58:53.319Z,-2.30
2022-12-15T13:01:08.102Z,-2.20
2022-12-15T13:03:18.026Z,-2.20
2022-12-15T13:05:28.371Z,-2.20
2022-12-15T13:07:34.603Z,-2.20
2022-12-15T13:09:42.519Z,-2.20
2022-12-15T13:12:15.031Z,-2.20
2022-12-15T13:14:44.457Z,-2.10
2022-12-15T13:17:24.849Z,-2.10
2022-12-15T13:19:57.650Z,-2.10
2022-12-15T13:22:02.021Z,-2.20
2022-12-15T13:24:05.285Z,-2.30
2022-12-15T13:26:20.688Z,-2.40
2022-12-15T13:28:39.322Z,-2.30
2022-12-15T13:31:13.716Z,-2.30
2022-12-15T13:33:20.023Z,-2.40
2022-12-15T13:35:26.398Z,-2.40
2022-12-15T13:37:48.892Z,-2.40
2022-12-15T13:39:55.144Z,-2.40
2022-12-15T13:42:37.246Z,-2.40
2022-12-15T13:44:46.619Z,-2.40
2022-12-15T13:46:54.720Z,-2.40
2022-12-15T13:49:10.495Z,-2.40
2022-12-15T13:51:31.201Z,-2.40
2022-12-15T13:53:44.186Z,-2.40
2022-12-15T13:55:59.992Z,-2.50
2022-12-15T13:58:07.731Z,-2.50
2022-12-15T14:00:18.471Z,-2.50
2022-12-15T14:02:26.679Z,-2.50
2022-12-15T14:04:29.529Z,-2.50
2022-12-15T14:06:37.501Z,-2.50
2022-12-15T14:08:42.688Z,-2.60
2022-12-15T14:10:49.133Z,-2.70
2022-12-15T14:12:56.682Z,-2.70
2022-12-15T14:14:59.721Z,-2.70
2022-12-15T14:17:04.491Z,-2.80
2022-12-15T14:19:18.637Z,-2.80
2022-12-15T14:21:23.343Z,-2.80
2022-12-15T14:23:29.889Z,-2.80
2022-12-15T14:25:34.465Z,-2.80
2022-12-15T14:27:37.487Z,-2.80
2022-12-15T14:29:40.321Z,-2.80
2022-12-15T14:31:44.713Z,-2.80
2022-12-15T14:36:15.055Z,-2.80
2022-12-15T14:38:22.527Z,-2.90
2022-12-15T14:40:29.197Z,-2.90
2022-12-15T14:42:33.983Z,-3.00
2022-12-15T14:44:39.754Z,-3.00
2022-12-15T14:46:47.431Z,-3.10
2022-12-15T14:48:54.080Z,-3.10
2022-12-15T14:51:01.047Z,-3.20
2022-12-15T14:53:12.395Z,-3.20
2022-12-15T14:55:33.532Z,-3.20
2022-12-15T14:57:43.334Z,-3.20
2022-12-15T14:59:48.472Z,-3.30
2022-12-15T15:01:58.687Z,-3.30
2022-12-15T15:03:16.532Z,-2.80
2022-12-15T15:04:02.919Z,-3.30
2022-12-15T15:06:15.626Z,-3.30
2022-12-15T15:08:27.890Z,-3.40
2022-12-15T15:10:31.412Z,-3.40
2022-12-15T15:12:46.311Z,-3.50
2022-12-15T15:14:53.460Z,-3.50
2022-12-15T15:17:04.218Z,-3.50
2022-12-15T15:19:07.651Z,-3.60
2022-12-15T15:21:19.160Z,-3.60
2022-12-15T15:23:22.075Z,-3.70
2022-12-15T15:25:33.630Z,-3.70
2022-12-15T15:27:40.486Z,-3.70
2022-12-15T15:29:44.946Z,-3.80
2022-12-15T15:31:47.896Z,-3.80
2022-12-15T15:33:50.786Z,-3.80
2022-12-15T15:35:57.547Z,-3.80
2022-12-15T15:38:05.073Z,-3.80
2022-12-15T15:40:15.529Z,-3.80
2022-12-15T15:42:18.470Z,-3.80
2022-12-15T15:44:21.134Z,-3.80
2022-12-15T15:46:27.028Z,-3.90
2022-12-15T15:48:32.844Z,-3.90
2022-12-15T15:50:37.726Z,-3.90
2022-12-15T15:52:40.775Z,-4.00
2022-12-15T15:54:44.965Z,-4.00
2022-12-15T15:56:47.756Z,-4.10
2022-12-15T15:58:50.739Z,-4.10
2022-12-15T16:00:54.192Z,-4.20
2022-12-15T16:02:58.357Z,-4.20
2022-12-15T16:05:01.830Z,-4.20
2022-12-15T16:07:05.843Z,-4.30
2022-12-15T16:09:08.727Z,-4.30
2022-12-15T16:11:12.754Z,-4.30
2022-12-15T16:13:22.401Z,-4.40
2022-12-15T16:15:31.665Z,-4.40
2022-12-15T16:17:34.573Z,-4.50
2022-12-15T16:19:39.925Z,-4.50
2022-12-15T16:21:44.059Z,-4.60
2022-12-15T16:23:49.327Z,-4.60
2022-12-15T16:25:54.276Z,-4.60
2022-12-15T16:27:57.303Z,-4.70
2022-12-15T16:30:00.269Z,-4.70
2022-12-15T16:32:06.011Z,-4.70
2022-12-15T16:34:08.793Z,-4.70
2022-12-15T16:36:14.757Z,-4.70
2022-12-15T16:38:23.114Z,-4.70
2022-12-15T16:40:28.075Z,-4.70
2022-12-15T16:42:30.871Z,-4.70
2022-12-15T16:44:33.570Z,-4.80
2022-12-15T16:46:36.329Z,-4.80
2022-12-15T16:48:39.337Z,-4.80
2022-12-15T16:50:44.998Z,-4.80
2022-12-15T16:52:51.842Z,-4.80
2022-12-15T16:54:54.755Z,-4.90
2022-12-15T16:56:59.839Z,-4.90
2022-12-15T16:59:31.274Z,-5.00
2022-12-15T17:01:25.579Z,-5.00
2022-12-15T17:03:28.781Z,-5.10
2022-12-15T17:05:34.670Z,-5.10
2022-12-15T17:07:38.559Z,-5.20
2022-12-15T17:09:42.984Z,-5.20
2022-12-15T17:11:46.093Z,-5.20
2022-12-15T17:13:51.225Z,-5.20
2022-12-15T17:15:54.882Z,-5.30
2022-12-15T17:17:57.994Z,-5.30
2022-12-15T17:22:24.196Z,-5.30
2022-12-15T17:24:26.956Z,-5.30
2022-12-15T17:26:33.487Z,-5.40
2022-12-15T17:28:37.485Z,-5.40
2022-12-15T17:30:40.188Z,-5.40
2022-12-15T17:32:43.286Z,-5.50
2022-12-15T17:34:46.037Z,-5.50
2022-12-15T17:36:48.738Z,-5.60
2022-12-15T17:38:55.240Z,-5.60
2022-12-15T17:40:58.226Z,-5.60
2022-12-15T17:43:02.636Z,-5.60
2022-12-15T17:45:15.892Z,-5.60
2022-12-15T17:47:18.670Z,-5.60
2022-12-15T17:49:22.022Z,-5.50
2022-12-15T17:51:24.707Z,-5.60
2022-12-15T17:53:27.747Z,-5.50
2022-12-15T17:55:34.968Z,-5.50
2022-12-15T17:57:38.342Z,-5.60
2022-12-15T17:59:42.846Z,-5.60
2022-12-15T18:01:45.913Z,-5.60
2022-12-15T18:03:48.914Z,-5.60
2022-12-15T18:05:53.788Z,-5.60
2022-12-15T18:07:58.938Z,-5.60
2022-12-15T18:10:01.857Z,-5.70
2022-12-15T18:12:04.872Z,-5.80
2022-12-15T18:14:13.548Z,-5.90
2022-12-15T18:16:17.800Z,-5.90
2022-12-15T18:18:22.238Z,-6.00
2022-12-15T18:20:25.492Z,-6.00
2022-12-15T18:22:28.456Z,-6.00
2022-12-15T18:24:34.341Z,-6.00
2022-12-15T18:26:37.916Z,-6.00
2022-12-15T18:28:40.721Z,-5.90
2022-12-15T18:30:43.690Z,-5.90
2022-12-15T18:32:49.004Z,-5.90
2022-12-15T18:34:54.584Z,-5.90
2022-12-15T18:36:57.298Z,-5.90
2022-12-15T18:39:00.000Z,-5.90
2022-12-15T18:41:04.154Z,-6.00
2022-12-15T18:43:12.280Z,-6.00
2022-12-15T18:45:27.940Z,-5.90
2022-12-15T18:47:31.093Z,-5.90
2022-12-15T18:49:36.127Z,-5.90
2022-12-15T18:51:39.557Z,-5.90
2022-12-15T18:53:42.521Z,-5.90
2022-12-15T18:55:45.261Z,-5.90
2022-12-15T18:57:49.929Z,-5.90
2022-12-15T18:59:52.767Z,-5.90
2022-12-15T19:01:55.540Z,-5.90
2022-12-15T19:03:58.311Z,-5.90
2022-12-15T19:06:04.889Z,-5.90
2022-12-15T19:08:13.167Z,-5.90
2022-12-15T19:10:16.078Z,-5.90
2022-12-15T19:12:19.226Z,-6.00
2022-12-15T19:14:35.888Z,-6.00
2022-12-15T19:16:52.631Z,-6.10
2022-12-15T19:19:17.261Z,-6.10
2022-12-15T19:21:41.336Z,-6.20
2022-12-15T19:23:44.177Z,-6.20
2022-12-15T19:25:47.980Z,-6.20
2022-12-15T19:27:50.923Z,-6.20
2022-12-15T19:29:54.809Z,-6.20
2022-12-15T19:31:57.737Z,-6.20
2022-12-15T19:34:01.403Z,-6.20
2022-12-15T19:36:05.033Z,-6.20
2022-12-15T19:38:12.742Z,-6.10
2022-12-15T19:40:20.221Z,-6.10
2022-12-15T19:42:29.239Z,-6.10
2022-12-15T19:44:32.356Z,-6.10
2022-12-15T19:46:35.459Z,-6.10
2022-12-15T19:48:38.148Z,-6.20
2022-12-15T19:50:42.518Z,-6.20
2022-12-15T19:52:48.132Z,-6.30
2022-12-15T19:54:52.729Z,-6.20
2022-12-15T19:56:55.530Z,-6.30
2022-12-15T19:58:58.451Z,-6.30
2022-12-15T20:01:03.270Z,-6.30
2022-12-15T20:03:06.146Z,-6.30
2022-12-15T20:05:09.389Z,-6.30
2022-12-15T20:07:18.107Z,-6.40
2022-12-15T20:09:21.012Z,-6.40
2022-12-15T20:11:26.957Z,-6.40
2022-12-15T20:13:30.213Z,-6.50
2022-12-15T20:15:33.409Z,-6.40
2022-12-15T20:17:36.442Z,-6.30
2022-12-15T20:19:39.128Z,-6.30
2022-12-15T20:21:42.569Z,-6.30
2022-12-15T20:23:50.514Z,-6.30
2022-12-15T20:25:54.251Z,-6.30
2022-12-15T20:28:00.324Z,-6.10
2022-12-15T20:30:03.155Z,-6.20
2022-12-15T20:32:13.559Z,-6.20
2022-12-15T20:34:16.630Z,-6.30
2022-12-15T20:36:24.021Z,-6.30
2022-12-15T20:38:31.352Z,-6.40
2022-12-15T20:40:34.139Z,-6.40
2022-12-15T20:42:37.187Z,-6.50
2022-12-15T20:44:43.708Z,-6.50
2022-12-15T20:46:46.684Z,-6.40
2022-12-15T20:48:50.602Z,-6.30
2022-12-15T20:50:53.692Z,-6.30
2022-12-15T20:52:56.601Z,-6.30
2022-12-15T20:54:59.348Z,-6.20
2022-12-15T20:57:02.158Z,-6.20
2022-12-15T20:59:05.941Z,-6.20
2022-12-15T21:01:19.335Z,-6.20
2022-12-15T21:03:26.130Z,-6.20
2022-12-15T21:05:29.606Z,-6.20
2022-12-15T21:07:32.351Z,-6.20
2022-12-15T21:09:35.248Z,-6.20
2022-12-15T21:11:38.222Z,-6.20
2022-12-15T21:13:41.679Z,-6.10
2022-12-15T21:15:44.423Z,-6.10
2022-12-15T21:17:57.879Z,-6.10
2022-12-15T21:20:07.469Z,-6.10
2022-12-15T21:22:19.890Z,-6.10
2022-12-15T21:24:25.161Z,-6.10
2022-12-15T21:26:28.256Z,-6.10
2022-12-15T21:28:31.649Z,-6.20
2022-12-15T21:30:35.568Z,-6.20
2022-12-15T21:32:38.710Z,-6.30
2022-12-15T21:34:43.212Z,-6.30
2022-12-15T21:36:50.059Z,-6.30
2022-12-15T21:38:54.971Z,-6.30
2022-12-15T21:41:00.433Z,-6.30
2022-12-15T21:43:05.696Z,-6.30
2022-12-15T21:45:15.266Z,-6.20
2022-12-15T21:47:25.894Z,-6.20
2022-12-15T21:49:27.677Z,-6.10
2022-12-15T21:51:38.700Z,-6.10
2022-12-15T21:53:46.451Z,-6.10
2022-12-15T21:55:49.223Z,-6.10
2022-12-15T21:57:53.532Z,-6.10
2022-12-15T21:59:56.331Z,-6.10
2022-12-15T22:02:00.789Z,-6.20
2022-12-15T22:04:06.215Z,-6.20
2022-12-15T22:06:18.347Z,-6.20
2022-12-15T22:08:22.978Z,-6.20
2022-12-15T22:10:26.312Z,-6.20
2022-12-15T22:12:29.011Z,-6.20
2022-12-15T22:14:34.811Z,-6.20
2022-12-15T22:16:37.794Z,-6.20
2022-12-15T22:18:40.695Z,-6.20
2022-12-15T22:20:48.206Z,-6.20
2022-12-15T22:22:51.841Z,-6.20
2022-12-15T22:24:56.594Z,-6.20
2022-12-15T22:26:59.330Z,-6.30
2022-12-15T22:29:04.266Z,-6.30
2022-12-15T22:31:07.808Z,-6.30
2022-12-15T22:33:21.549Z,-6.30
2022-12-15T22:35:30.387Z,-6.30
2022-12-15T22:37:33.833Z,-6.30
2022-12-15T22:39:36.515Z,-6.30
2022-12-15T22:41:43.611Z,-6.30
2022-12-15T22:43:51.242Z,-6.30
2022-12-15T22:45:56.262Z,-6.30
2022-12-15T22:47:59.039Z,-6.30
2022-12-15T22:50:01.999Z,-6.30
2022-12-15T22:52:13.942Z,-6.30
2022-12-15T22:54:19.783Z,-6.30
2022-12-15T22:56:25.569Z,-6.40
2022-12-15T22:58:33.297Z,-6.40
2022-12-15T23:00:36.414Z,-6.40
2022-12-15T23:02:42.488Z,-6.40
2022-12-15T23:04:45.290Z,-6.40
2022-12-15T23:06:48.562Z,-6.40
2022-12-15T23:08:55.650Z,-6.30
2022-12-15T23:11:17.387Z,-6.30
2022-12-15T23:13:20.258Z,-6.30
2022-12-15T23:15:43.857Z,-6.20
2022-12-15T23:17:46.652Z,-6.20
2022-12-15T23:19:49.430Z,-6.20
2022-12-15T23:21:52.864Z,-6.20
2022-12-15T23:23:55.899Z,-6.10
2022-12-15T23:25:59.459Z,-6.10
2022-12-15T23:28:02.205Z,-6.10
2022-12-15T23:30:05.703Z,-6.10
2022-12-15T23:32:09.762Z,-6.10
2022-12-15T23:34:12.519Z,-6.20
2022-12-15T23:36:15.269Z,-6.20
2022-12-15T23:38:18.095Z,-6.20
2022-12-15T23:40:22.086Z,-6.20
2022-12-15T23:42:25.127Z,-6.20
2022-12-15T23:44:27.905Z,-6.20
2022-12-15T23:46:30.706Z,-6.20
2022-12-15T23:48:37.809Z,-6.20
2022-12-15T23:50:41.307Z,-6.20
2022-12-15T23:52:44.298Z,-6.30
2022-12-15T23:54:47.181Z,-6.30
2022-12-15T23:56:49.861Z,-6.30
2022-12-15T23:58:58.425Z,-6.30
